Time;durP1;ratioP1;P1;durP2;ratioP2;P2;SDS_P1;SDS_P2;PMS_P1;PMS_P2;Temp;Humidity;BMP_temperature;BMP_pressure;BME280_temperature;BME280_humidity;BME280_pressure;Samples;Min_cycle;Max_cycle;Signal;HPM_P1;HPM_P2
2022/07/20 00:00:52;;;;;;;9.38;6.40;;;;;;;25.63;42.70;102037.83;1731291;81;21011;-50
2022/07/20 00:03:19;;;;;;;11.93;6.75;;;;;;;25.64;42.76;102035.52;1731910;81;21011;-52
2022/07/20 00:05:45;;;;;;;11.70;6.83;;;;;;;25.60;42.74;102027.81;1732464;81;22246;-48
2022/07/20 00:08:14;;;;;;;10.88;6.45;;;;;;;25.59;42.58;102026.13;1731644;81;21054;-50
2022/07/20 00:13:27;;;;;;;12.28;7.58;;;;;;;25.61;42.17;102018.88;1736462;82;21059;-51
2022/07/20 00:15:54;;;;;;;12.93;7.50;;;;;;;25.61;41.90;102026.41;1738333;81;21003;-50
2022/07/20 00:18:23;;;;;;;14.18;8.65;;;;;;;25.60;41.92;102024.68;1731635;81;21511;-49
2022/07/20 00:20:50;;;;;;;14.20;8.85;;;;;;;25.58;41.91;102021.26;1731767;81;21051;-48
2022/07/20 00:23:17;;;;;;;12.93;8.50;;;;;;;25.60;41.86;102025.15;1733745;81;21578;-49
2022/07/20 00:25:44;;;;;;;11.03;7.53;;;;;;;25.60;41.72;102014.02;1734577;81;21039;-49
2022/07/20 00:28:11;;;;;;;12.45;7.67;;;;;;;25.61;41.43;102014.41;1733670;81;20999;-48
2022/07/20 00:30:38;;;;;;;14.53;7.85;;;;;;;25.61;41.47;102006.88;1732360;81;21020;-51
2022/07/20 00:33:05;;;;;;;11.18;8.05;;;;;;;25.61;41.69;102007.75;1735367;81;21062;-51
2022/07/20 00:35:32;;;;;;;14.75;7.72;;;;;;;25.59;41.89;102002.13;1696337;84;21066;-49
2022/07/20 00:37:59;;;;;;;13.05;7.53;;;;;;;25.56;42.15;102005.84;1702448;83;21030;-50
2022/07/20 00:40:26;;;;;;;9.40;7.22;;;;;;;25.56;42.15;102005.84;1699604;84;21057;-47
2022/07/20 00:42:53;;;;;;;14.38;8.48;;;;;;;25.52;42.05;102003.00;1688341;83;21519;-50
2022/07/20 00:45:20;;;;;;;13.18;7.97;;;;;;;25.49;42.42;102001.02;1698843;83;21494;-48
2022/07/20 00:47:48;;;;;;;15.38;7.35;;;;;;;25.48;42.72;101998.82;1697789;83;21581;-50
2022/07/20 00:50:14;;;;;;;12.35;7.05;;;;;;;25.45;42.93;102003.00;1696499;84;20990;-50
2022/07/20 00:52:42;;;;;;;12.58;7.60;;;;;;;25.43;43.11;101994.75;1702680;83;21053;-49
2022/07/20 00:55:10;;;;;;;8.28;5.67;;;;;;;25.37;43.00;101994.61;1699956;84;21003;-50
2022/07/20 00:57:36;;;;;;;7.47;5.03;;;;;;;25.37;43.00;101994.61;1697623;83;21023;-49
2022/07/20 01:00:06;;;;;;;7.65;4.45;;;;;;;25.31;43.33;101990.14;1697812;83;21003;-49
2022/07/20 01:02:35;;;;;;;7.25;4.55;;;;;;;25.31;43.33;101990.14;1697668;83;21019;-49
2022/07/20 01:05:04;;;;;;;4.62;3.65;;;;;;;25.29;43.36;101991.58;1697813;83;21026;-50
2022/07/20 01:07:31;;;;;;;6.53;3.17;;;;;;;25.26;43.11;101988.27;1697857;83;21030;-49
2022/07/20 01:09:58;;;;;;;3.90;2.80;;;;;;;25.20;43.00;101978.86;1700298;83;21074;-49
2022/07/20 01:12:25;;;;;;;6.40;2.98;;;;;;;25.21;42.85;101982.36;1700537;84;21007;-48
2022/07/20 01:14:55;;;;;;;6.08;2.62;;;;;;;25.17;42.93;101972.37;1699892;84;21109;-48
2022/07/20 01:17:22;;;;;;;3.65;2.10;;;;;;;25.14;42.97;101980.59;1703960;84;21007;-50
2022/07/20 01:19:50;;;;;;;6.42;2.15;;;;;;;25.14;42.98;101980.59;1699304;83;21076;-48
2022/07/20 01:22:17;;;;;;;2.60;1.90;;;;;;;25.11;43.20;101977.23;1700152;83;21495;-48
2022/07/20 01:24:44;;;;;;;4.85;2.10;;;;;;;25.10;43.38;101976.37;1700513;84;21490;-49
2022/07/20 01:27:12;;;;;;;5.67;1.85;;;;;;;25.07;43.49;101980.58;1700826;84;21006;-51
2022/07/20 01:29:39;;;;;;;3.85;1.35;;;;;;;25.05;43.53;101973.16;1697771;84;21540;-49
2022/07/20 01:32:06;;;;;;;2.02;1.62;;;;;;;25.05;43.54;101974.48;1697588;83;21058;-51
2022/07/20 01:34:34;;;;;;;4.80;2.33;;;;;;;24.99;43.76;101970.88;1697708;83;21554;-48
2022/07/20 01:37:02;;;;;;;2.35;1.55;;;;;;;24.99;43.76;101970.88;1697388;83;21026;-51
2022/07/20 01:39:29;;;;;;;3.27;1.50;;;;;;;24.94;43.72;101960.98;1697943;83;21021;-50
2022/07/20 01:41:56;;;;;;;2.27;1.55;;;;;;;24.96;43.80;101962.60;1700400;83;21070;-48
2022/07/20 01:44:23;;;;;;;2.42;1.60;;;;;;;24.94;43.61;101959.65;1696701;84;21018;-49
2022/07/20 01:46:51;;;;;;;2.60;1.72;;;;;;;24.91;43.29;101962.52;1734283;80;21059;-50
2022/07/20 01:49:18;;;;;;;3.20;1.57;;;;;;;24.89;43.13;101959.09;1734676;81;21007;-51
2022/07/20 01:51:45;;;;;;;2.77;1.85;;;;;;;24.87;42.98;101958.34;1684104;85;21022;-54
2022/07/20 01:54:12;;;;;;;3.37;1.85;;;;;;;24.83;42.83;101954.98;1695875;84;21521;-50
2022/07/20 01:56:42;;;;;;;1.70;1.60;;;;;;;24.83;42.83;101954.98;1737035;81;21016;-49
2022/07/20 01:59:08;;;;;;;2.50;1.60;;;;;;;24.82;42.87;101957.75;1700097;84;21511;-51
2022/07/20 02:01:38;;;;;;;3.50;2.00;;;;;;;24.80;42.86;101953.00;1697299;84;20999;-48
2022/07/20 02:04:05;;;;;;;2.95;1.50;;;;;;;24.74;42.81;101950.72;1697900;83;21034;-47
2022/07/20 02:06:32;;;;;;;5.00;1.60;;;;;;;24.74;42.81;101950.72;1731665;81;21056;-48
2022/07/20 02:08:59;;;;;;;3.37;1.90;;;;;;;24.73;42.63;101952.52;1730881;81;21026;-50
2022/07/20 02:11:27;;;;;;;2.37;1.70;;;;;;;24.72;42.56;101954.78;1731878;81;21503;-51
2022/07/20 02:13:54;;;;;;;2.72;1.72;;;;;;;24.70;42.62;101955.82;1668695;85;21015;-47
2022/07/20 02:16:21;;;;;;;3.70;1.82;;;;;;;24.68;42.62;101952.40;1684469;84;21090;-49
2022/07/20 02:18:53;;;;;;;2.22;2.02;;;;;;;24.68;42.68;101965.70;1731355;81;21082;-48
2022/07/20 02:21:21;;;;;;;4.92;2.33;;;;;;;24.68;42.71;101968.38;1686827;84;21060;-54
2022/07/20 02:23:48;;;;;;;4.97;2.27;;;;;;;24.67;42.66;101962.18;1694708;84;21035;-51
2022/07/20 02:26:15;;;;;;;3.60;2.52;;;;;;;24.66;42.67;101960.48;1699760;84;21019;-51
2022/07/20 02:28:42;;;;;;;8.88;3.05;;;;;;;24.65;42.85;101961.89;1725838;82;21026;-51
2022/07/20 02:31:10;;;;;;;8.03;3.17;;;;;;;24.65;42.85;101961.89;1725500;81;21043;-49
2022/07/20 02:33:37;;;;;;;5.53;3.83;;;;;;;24.62;42.83;101959.43;1724849;81;21015;-49
2022/07/20 02:36:05;;;;;;;5.33;3.33;;;;;;;24.62;42.79;101960.77;1722757;81;21007;-48
2022/07/20 02:38:32;;;;;;;4.53;3.40;;;;;;;24.60;42.83;101956.01;1722908;81;21014;-49
2022/07/20 02:40:59;;;;;;;4.60;2.62;;;;;;;24.58;42.82;101965.42;1722638;81;21502;-49
2022/07/20 02:43:26;;;;;;;6.17;2.80;;;;;;;24.58;42.84;101965.42;1722893;81;21010;-53
2022/07/20 02:45:53;;;;;;;4.08;2.55;;;;;;;24.55;42.85;101965.59;1723996;81;21029;-49
2022/07/20 02:48:20;;;;;;;4.15;2.60;;;;;;;24.54;42.93;101960.38;1725963;81;21043;-53
2022/07/20 02:50:47;;;;;;;10.60;2.98;;;;;;;24.53;43.04;101971.95;1725784;81;21034;-50
2022/07/20 02:53:14;;;;;;;4.70;2.08;;;;;;;24.53;43.04;101971.95;1729689;81;22163;-48
2022/07/20 02:55:42;;;;;;;6.42;2.42;;;;;;;24.53;43.02;101974.61;1723572;82;21095;-48
2022/07/20 02:58:10;;;;;;;6.60;2.10;;;;;;;24.53;42.99;101971.95;1718134;81;21526;-48
2022/07/20 03:00:38;;;;;;;3.47;2.02;;;;;;;24.54;42.97;101969.69;1720331;81;21046;-48
2022/07/20 03:03:05;;;;;;;3.20;1.87;;;;;;;24.53;42.99;101971.48;1725951;81;21023;-48
2022/07/20 03:05:33;;;;;;;4.50;1.60;;;;;;;24.54;43.03;101972.35;1725083;81;21101;-49
2022/07/20 03:07:59;;;;;;;2.02;1.32;;;;;;;24.56;43.06;101970.45;1723019;81;21491;-49
2022/07/20 03:10:27;;;;;;;2.50;1.65;;;;;;;24.58;43.41;101971.22;1724554;81;21035;-51
2022/07/20 03:12:54;;;;;;;7.87;1.50;;;;;;;24.58;43.41;101971.22;1726535;82;21030;-52
2022/07/20 03:15:21;;;;;;;3.45;1.62;;;;;;;24.59;43.43;101975.57;1725742;81;21023;-48
2022/07/20 03:17:51;;;;;;;4.70;1.40;;;;;;;24.61;43.63;101969.68;1728962;81;21054;-49
2022/07/20 03:20:26;;;;;;;4.10;1.40;;;;;;;24.61;43.89;101972.34;1724165;81;20986;-50
2022/07/20 03:22:55;;;;;;;3.50;1.90;;;;;;;24.62;44.13;101967.41;1746417;81;21038;-48
2022/07/20 03:25:23;;;;;;;2.83;1.12;;;;;;;24.62;44.53;101969.61;1734188;81;21070;-50
2022/07/20 03:27:55;;;;;;;4.35;1.67;;;;;;;24.64;44.81;101976.16;1735478;82;21015;-51
2022/07/20 03:30:22;;;;;;;5.80;1.50;;;;;;;24.65;45.34;101971.20;1732069;82;21030;-48
2022/07/20 03:32:49;;;;;;;2.83;1.25;;;;;;;24.66;46.01;101970.27;1736723;81;21035;-50
2022/07/20 03:35:17;;;;;;;4.10;1.80;;;;;;;24.72;46.80;101956.58;1700963;84;21022;-50
2022/07/20 03:37:45;;;;;;;8.00;1.90;;;;;;;24.81;47.12;101959.55;1731779;81;21031;-48
2022/07/20 03:40:13;;;;;;;3.05;2.12;;;;;;;24.81;47.12;101959.55;1731144;81;21535;-53
2022/07/20 03:42:39;;;;;;;4.55;1.60;;;;;;;24.94;47.01;101966.30;1731743;81;20943;-48
2022/07/20 03:45:08;;;;;;;4.95;1.70;;;;;;;25.06;47.21;101955.37;1729104;81;21019;-51
2022/07/20 03:47:35;;;;;;;4.20;2.02;;;;;;;25.24;46.39;101966.19;1734422;81;21048;-48
2022/07/20 03:50:02;;;;;;;2.27;1.80;;;;;;;25.48;45.57;101961.51;1738333;81;20999;-48
2022/07/20 03:52:29;;;;;;;3.05;1.90;;;;;;;25.83;44.41;101969.86;1730951;82;21035;-49
2022/07/20 03:54:56;;;;;;;1.87;1.60;;;;;;;26.31;43.35;101969.28;1743264;81;21011;-48
2022/07/20 03:57:22;;;;;;;2.98;1.98;;;;;;;26.91;42.05;101968.20;1699434;84;20987;-50
2022/07/20 03:59:49;;;;;;;3.35;2.00;;;;;;;27.59;40.63;101969.06;1698691;84;21546;-51
2022/07/20 04:02:16;;;;;;;2.55;2.15;;;;;;;28.28;39.29;101969.14;1698722;84;21058;-48
2022/07/20 04:04:43;;;;;;;7.20;2.00;;;;;;;28.77;38.41;101968.39;1701692;84;21017;-48
2022/07/20 04:07:10;;;;;;;3.12;2.30;;;;;;;29.07;37.62;101966.94;1700287;84;21535;-49
2022/07/20 04:09:43;;;;;;;3.72;1.92;;;;;;;29.26;36.89;101968.06;1698390;84;21019;-52
2022/07/20 04:12:22;;;;;;;2.55;1.82;;;;;;;29.36;36.38;101965.48;1696514;84;21542;-51
2022/07/20 04:14:50;;;;;;;6.60;2.30;;;;;;;29.29;36.43;101962.44;1698340;83;21568;-51
2022/07/20 04:17:17;;;;;;;4.62;2.25;;;;;;;29.12;36.68;101971.45;1697803;84;21026;-49
2022/07/20 04:19:45;;;;;;;3.70;2.33;;;;;;;28.94;36.98;101973.76;1697465;84;21018;-49
2022/07/20 04:22:12;;;;;;;4.03;2.17;;;;;;;28.72;37.17;101979.98;1698121;84;21509;-50
2022/07/20 04:24:41;;;;;;;3.77;1.92;;;;;;;28.53;37.66;101975.65;1695527;84;21069;-50
2022/07/20 04:27:08;;;;;;;3.22;2.30;;;;;;;28.35;37.78;101975.73;1694618;84;21046;-50
2022/07/20 04:29:34;;;;;;;3.25;1.90;;;;;;;28.18;38.03;101980.18;1697524;84;21077;-48
2022/07/20 04:32:01;;;;;;;4.20;2.00;;;;;;;28.03;38.27;101978.18;1698021;83;21491;-48
2022/07/20 04:34:28;;;;;;;8.93;2.10;;;;;;;27.89;38.67;101978.81;1699033;84;21034;-49
2022/07/20 04:36:55;;;;;;;3.22;2.17;;;;;;;27.77;39.04;101975.72;1735285;81;20995;-48
2022/07/20 04:39:23;;;;;;;4.83;2.00;;;;;;;27.66;39.47;101978.33;1734568;81;21053;-51
2022/07/20 04:41:50;;;;;;;3.47;2.20;;;;;;;27.56;39.69;101979.49;1698344;84;21046;-50
2022/07/20 04:44:17;;;;;;;3.45;2.25;;;;;;;27.48;39.63;101979.68;1732493;82;21087;-48
2022/07/20 04:46:43;;;;;;;3.02;2.30;;;;;;;27.42;39.72;101991.69;1723377;81;21063;-49
2022/07/20 04:49:10;;;;;;;7.62;2.20;;;;;;;27.36;39.91;101991.66;1733372;81;21063;-49
2022/07/20 04:51:37;;;;;;;3.85;2.40;;;;;;;27.31;39.99;101992.42;1700720;84;20987;-50
2022/07/20 04:54:04;;;;;;;4.12;2.27;;;;;;;27.26;39.92;101989.25;1696775;84;21010;-50
2022/07/20 04:56:31;;;;;;;2.20;2.00;;;;;;;27.24;40.03;101995.66;1735148;81;21001;-48
2022/07/20 04:58:58;;;;;;;4.33;2.27;;;;;;;27.21;39.98;101992.72;1733512;81;21031;-50
2022/07/20 05:01:25;;;;;;;3.52;2.45;;;;;;;27.17;40.09;101991.70;1729437;81;21027;-49
2022/07/20 05:03:53;;;;;;;2.40;2.20;;;;;;;27.15;40.23;101993.63;1731864;81;21058;-49
2022/07/20 05:06:20;;;;;;;2.42;2.22;;;;;;;27.13;40.21;101993.75;1731281;81;21031;-50
2022/07/20 05:08:47;;;;;;;4.08;2.30;;;;;;;27.11;40.36;101993.01;1731583;81;21023;-50
2022/07/20 05:11:14;;;;;;;3.08;2.10;;;;;;;27.11;40.39;101997.48;1728119;81;21039;-49
2022/07/20 05:13:41;;;;;;;3.15;2.27;;;;;;;27.11;40.38;101995.68;1698680;84;21030;-49
2022/07/20 05:16:09;;;;;;;2.72;1.92;;;;;;;27.15;40.64;101999.84;1698247;83;21027;-50
2022/07/20 05:18:36;;;;;;;3.15;1.90;;;;;;;27.27;40.63;101994.95;1733032;81;21003;-50
2022/07/20 05:21:03;;;;;;;3.72;2.50;;;;;;;27.46;40.31;101998.98;1733476;82;21047;-50
2022/07/20 05:23:30;;;;;;;2.67;2.17;;;;;;;27.73;40.61;101995.63;1734732;81;20987;-49
2022/07/20 05:25:57;;;;;;;2.55;2.22;;;;;;;28.05;40.44;101994.97;1735800;81;21003;-52
2022/07/20 05:28:24;;;;;;;4.53;2.37;;;;;;;28.39;40.08;101993.27;1732896;81;21054;-54
2022/07/20 05:30:51;;;;;;;3.58;2.85;;;;;;;28.68;39.72;101994.59;1730772;81;21039;-54
2022/07/20 05:33:18;;;;;;;5.75;2.50;;;;;;;28.90;39.50;102001.30;1731726;81;21056;-50
2022/07/20 05:35:45;;;;;;;5.03;2.50;;;;;;;29.04;39.31;102000.19;1730870;81;21097;-49
2022/07/20 05:38:13;;;;;;;3.25;2.25;;;;;;;29.16;39.00;101999.75;1732054;81;21426;-50
2022/07/20 05:40:40;;;;;;;2.72;2.20;;;;;;;29.22;39.25;102002.80;1732992;81;21066;-49
2022/07/20 05:43:07;;;;;;;3.77;2.58;;;;;;;29.27;39.12;102002.41;1700938;84;21503;-50
2022/07/20 05:45:36;;;;;;;3.77;2.33;;;;;;;29.29;38.79;102007.16;1700808;84;21014;-51
2022/07/20 05:48:05;;;;;;;4.67;2.60;;;;;;;29.31;39.02;102001.18;1698479;84;21085;-50
2022/07/20 05:50:33;;;;;;;4.60;2.33;;;;;;;29.34;38.90;102006.31;1699237;84;21022;-51
2022/07/20 05:52:59;;;;;;;5.05;2.45;;;;;;;29.35;38.73;102003.50;1699783;84;21092;-51
2022/07/20 05:55:26;;;;;;;4.62;2.62;;;;;;;29.34;38.85;102008.52;1700998;84;21071;-52
2022/07/20 05:57:53;;;;;;;3.25;2.20;;;;;;;29.34;38.98;102004.97;1692413;84;21046;-50
2022/07/20 06:00:20;;;;;;;4.47;2.65;;;;;;;29.35;39.23;102010.68;1696637;84;21030;-51
2022/07/20 06:02:47;;;;;;;5.25;2.58;;;;;;;29.35;38.96;102006.66;1699240;84;21014;-51
2022/07/20 06:05:13;;;;;;;4.50;2.45;;;;;;;29.37;39.04;102008.73;1699011;84;21034;-51
2022/07/20 06:07:41;;;;;;;3.72;2.72;;;;;;;29.39;39.23;102002.75;1733820;82;21010;-53
2022/07/20 06:10:08;;;;;;;3.72;2.35;;;;;;;29.42;39.29;102000.70;1700907;84;21538;-52
2022/07/20 06:12:37;;;;;;;3.75;2.55;;;;;;;29.53;39.28;102007.88;1734508;81;21015;-50
2022/07/20 06:15:06;;;;;;;7.20;2.62;;;;;;;29.68;39.20;102002.58;1721569;81;21035;-50
2022/07/20 06:17:36;;;;;;;3.75;2.37;;;;;;;29.82;39.30;101995.61;1699977;84;21038;-50
2022/07/20 06:20:10;;;;;;;4.33;2.45;;;;;;;29.96;39.26;101985.94;1719726;82;21037;-53
2022/07/20 06:22:39;;;;;;;9.25;3.00;;;;;;;30.10;39.00;101988.80;1681730;84;21012;-51
2022/07/20 06:25:07;;;;;;;4.28;2.22;;;;;;;30.21;38.89;101985.55;1686656;84;21079;-52
2022/07/20 06:27:36;;;;;;;2.65;2.40;;;;;;;30.34;38.65;101983.58;1684627;85;21020;-55
2022/07/20 06:30:04;;;;;;;3.05;2.50;;;;;;;30.41;38.32;101974.02;1684255;84;21047;-50
2022/07/20 06:32:32;;;;;;;4.75;2.70;;;;;;;30.46;37.94;101979.83;1682180;84;20998;-49
2022/07/20 06:34:59;;;;;;;3.58;2.47;;;;;;;30.47;38.00;101977.52;1674109;84;21062;-50
2022/07/20 06:37:26;;;;;;;4.47;2.62;;;;;;;30.50;37.75;101972.39;1673739;84;21575;-50
2022/07/20 06:39:53;;;;;;;4.75;3.12;;;;;;;30.51;37.95;101980.30;1673831;84;21050;-50
2022/07/20 06:42:22;;;;;;;3.83;2.80;;;;;;;30.52;37.89;101976.62;1673865;84;21046;-51
2022/07/20 06:44:49;;;;;;;4.20;2.50;;;;;;;30.52;37.66;101973.10;1673108;84;21531;-52
2022/07/20 06:47:16;;;;;;;3.52;2.20;;;;;;;30.51;37.86;101974.93;1674773;84;21539;-48
2022/07/20 06:49:43;;;;;;;3.45;2.50;;;;;;;30.51;37.94;101964.19;1675833;85;21038;-50
2022/07/20 06:52:10;;;;;;;4.67;2.80;;;;;;;30.48;37.97;101969.81;1666853;84;21042;-48
2022/07/20 06:54:38;;;;;;;2.52;2.27;;;;;;;30.45;38.09;101965.20;1673915;84;21503;-51
2022/07/20 06:57:06;;;;;;;4.65;2.60;;;;;;;30.41;37.97;101966.45;1670234;84;21050;-49
2022/07/20 06:59:32;;;;;;;4.42;2.50;;;;;;;30.40;37.88;101966.94;1672820;85;21543;-50
2022/07/20 07:01:59;;;;;;;3.20;2.47;;;;;;;30.40;37.24;101966.08;1672613;84;21074;-55
2022/07/20 07:04:26;;;;;;;6.20;2.58;;;;;;;30.39;36.65;101965.25;1673874;84;21562;-50
2022/07/20 07:06:53;;;;;;;3.80;2.67;;;;;;;30.40;37.33;101964.25;1674095;84;21099;-51
2022/07/20 07:09:19;;;;;;;3.83;2.37;;;;;;;30.42;37.66;101967.66;1674016;84;21050;-49
2022/07/20 07:11:47;;;;;;;5.42;2.65;;;;;;;30.44;37.42;101969.71;1676303;84;21558;-49
2022/07/20 07:14:13;;;;;;;3.60;2.52;;;;;;;30.46;37.08;101966.41;1673022;83;21582;-52
2022/07/20 07:16:42;;;;;;;3.95;2.08;;;;;;;30.56;37.13;101968.31;1683325;83;21090;-50
2022/07/20 07:19:10;;;;;;;3.02;2.42;;;;;;;30.68;36.83;101975.30;1692844;82;21475;-51
2022/07/20 07:21:37;;;;;;;5.20;2.42;;;;;;;30.79;36.02;101975.23;1738217;81;21047;-51
2022/07/20 07:24:05;;;;;;;3.35;2.80;;;;;;;30.86;35.56;101963.83;1731343;81;21027;-52
2022/07/20 07:26:32;;;;;;;3.87;2.42;;;;;;;30.95;35.01;101966.20;1749735;80;21002;-51
2022/07/20 07:28:59;;;;;;;3.17;2.55;;;;;;;31.05;35.27;101964.40;1727356;82;20975;-49
2022/07/20 07:31:26;;;;;;;2.75;2.52;;;;;;;31.17;33.82;101965.50;1737586;81;21042;-51
2022/07/20 07:33:53;;;;;;;5.15;2.47;;;;;;;31.26;32.76;101961.14;1740689;80;21531;-52
2022/07/20 07:36:22;;;;;;;2.98;2.30;;;;;;;31.31;32.59;101956.19;1747546;80;20982;-51
2022/07/20 07:38:49;;;;;;;4.03;2.20;;;;;;;31.30;32.36;101963.40;1730426;81;21075;-50
2022/07/20 07:41:17;;;;;;;3.72;2.60;;;;;;;31.27;32.98;101966.38;1732018;82;20991;-52
2022/07/20 07:43:44;;;;;;;3.08;2.42;;;;;;;31.25;33.29;101956.73;1742415;80;20986;-50
2022/07/20 07:46:11;;;;;;;3.60;2.80;;;;;;;31.26;33.59;101959.80;1750107;80;21039;-48
2022/07/20 07:48:39;;;;;;;6.17;3.10;;;;;;;31.27;33.97;101963.69;1707564;84;21063;-50
2022/07/20 07:51:06;;;;;;;6.05;2.72;;;;;;;31.27;34.22;101962.83;1697590;84;21022;-52
2022/07/20 07:53:33;;;;;;;3.60;2.60;;;;;;;31.25;34.60;101959.43;1699192;84;21522;-51
2022/07/20 07:56:01;;;;;;;8.00;2.70;;;;;;;31.24;34.83;101952.37;1699641;84;21090;-52
2022/07/20 07:58:28;;;;;;;4.25;2.85;;;;;;;31.24;34.92;101955.06;1709134;84;21531;-50
2022/07/20 08:00:54;;;;;;;2.85;2.55;;;;;;;31.23;34.99;101947.96;1740015;80;21061;-51
2022/07/20 08:03:22;;;;;;;4.37;2.37;;;;;;;31.23;34.83;101950.66;1746210;80;20994;-50
2022/07/20 08:05:50;;;;;;;4.67;2.83;;;;;;;31.21;34.43;101953.97;1744933;81;21025;-54
2022/07/20 08:08:17;;;;;;;3.22;2.50;;;;;;;31.14;34.33;101948.28;1733665;81;21050;-52
2022/07/20 08:10:44;;;;;;;4.30;2.70;;;;;;;31.12;34.68;101948.06;1692184;84;20958;-52
2022/07/20 08:13:12;;;;;;;4.60;2.30;;;;;;;31.09;34.49;101948.34;1744571;80;21003;-49
2022/07/20 08:15:39;;;;;;;4.28;2.30;;;;;;;31.05;34.45;101940.20;1734045;81;21023;-51
2022/07/20 08:18:06;;;;;;;3.80;2.65;;;;;;;31.02;34.65;101940.46;1727716;80;21523;-50
2022/07/20 08:20:33;;;;;;;2.83;2.60;;;;;;;31.01;35.56;101940.12;1740198;81;21054;-51
2022/07/20 08:23:00;;;;;;;4.33;2.58;;;;;;;31.02;36.08;101936.43;1726895;80;21039;-50
2022/07/20 08:25:28;;;;;;;4.47;2.62;;;;;;;31.06;36.30;101936.02;1736666;80;21531;-51
2022/07/20 08:27:55;;;;;;;4.12;2.35;;;;;;;31.09;36.46;101932.22;1747720;80;21031;-50
2022/07/20 08:30:22;;;;;;;4.15;2.40;;;;;;;31.12;36.78;101927.89;1703336;84;21042;-49
2022/07/20 08:32:48;;;;;;;4.75;2.30;;;;;;;31.16;36.71;101932.04;1701379;84;21529;-50
2022/07/20 08:35:15;;;;;;;4.33;2.70;;;;;;;31.18;36.46;101920.65;1702541;83;20997;-51
2022/07/20 08:37:42;;;;;;;4.00;2.47;;;;;;;31.19;36.34;101923.68;1706280;84;20999;-49
2022/07/20 08:40:10;;;;;;;5.20;2.17;;;;;;;31.21;36.51;101924.39;1703040;83;21062;-52
2022/07/20 08:42:39;;;;;;;3.30;2.90;;;;;;;31.19;36.51;101917.81;1734965;80;21034;-51
2022/07/20 08:45:09;;;;;;;3.33;2.00;;;;;;;31.20;36.36;101910.61;1753165;80;21053;-52
2022/07/20 08:47:38;;;;;;;3.27;2.08;;;;;;;31.20;36.44;101905.23;1740049;80;21490;-48
2022/07/20 08:50:06;;;;;;;2.60;2.20;;;;;;;31.19;36.38;101900.82;1751516;80;21027;-49
2022/07/20 08:52:33;;;;;;;2.33;2.12;;;;;;;31.20;36.31;101900.67;1743644;80;20995;-52
2022/07/20 08:55:00;;;;;;;3.25;2.10;;;;;;;31.19;36.33;101891.41;1738991;80;21519;-50
2022/07/20 08:57:28;;;;;;;3.27;2.40;;;;;;;31.17;36.17;101894.25;1741943;80;21023;-49
2022/07/20 08:59:55;;;;;;;2.65;2.00;;;;;;;31.20;36.07;101899.85;1702956;84;21006;-48
2022/07/20 09:02:23;;;;;;;2.15;2.05;;;;;;;30.99;36.85;101891.02;1700461;84;21562;-50
2022/07/20 09:04:57;;;;;;;3.20;2.47;;;;;;;31.00;37.16;101894.05;1704441;84;21097;-52
2022/07/20 09:07:48;;;;;;;2.60;2.05;;;;;;;31.26;36.22;101885.33;1699577;84;21023;-50
2022/07/20 09:10:26;;;;;;;3.43;1.83;;;;;;;31.31;36.31;101883.57;1745331;80;21058;-50
2022/07/20 09:13:03;;;;;;;2.27;2.00;;;;;;;31.32;36.31;101875.35;1699448;84;21522;-50
2022/07/20 09:15:40;;;;;;;2.37;2.02;;;;;;;31.33;36.83;101876.21;1738279;81;21466;-52
2022/07/20 09:18:22;;;;;;;2.55;1.85;;;;;;;31.34;36.59;101876.58;1700212;84;21059;-51
2022/07/20 09:21:02;;;;;;;2.90;2.25;;;;;;;31.36;36.22;101867.87;1733836;81;21587;-51
2022/07/20 09:23:36;;;;;;;2.37;2.08;;;;;;;31.37;35.36;101869.56;1662399;85;21548;-49
2022/07/20 09:26:05;;;;;;;5.00;1.92;;;;;;;31.38;35.69;101867.23;1657476;85;21047;-50
2022/07/20 09:28:41;;;;;;;3.10;2.20;;;;;;;31.41;35.72;101865.62;1654127;85;21035;-50
2022/07/20 09:31:18;;;;;;;2.25;1.90;;;;;;;31.44;36.02;101866.70;1658730;85;21098;-51
2022/07/20 09:33:57;;;;;;;3.15;2.20;;;;;;;31.47;35.80;101855.65;1652626;85;21074;-50
2022/07/20 09:36:27;;;;;;;3.58;2.02;;;;;;;31.50;36.12;101856.73;1652080;85;21020;-51
2022/07/20 09:38:54;;;;;;;2.30;2.10;;;;;;;31.51;35.91;101853.55;1652763;85;21108;-51
2022/07/20 09:41:25;;;;;;;2.85;2.30;;;;;;;31.49;35.86;101852.32;1666136;85;21056;-48
2022/07/20 09:43:54;;;;;;;3.45;2.35;;;;;;;31.42;36.06;101844.48;1654337;85;21105;-50
2022/07/20 09:46:26;;;;;;;2.30;2.10;;;;;;;31.40;35.74;101844.27;1655611;85;21034;-48
2022/07/20 09:48:58;;;;;;;2.67;2.20;;;;;;;31.38;35.89;101837.66;1562245;89;21095;-51
2022/07/20 09:51:33;;;;;;;2.70;2.08;;;;;;;31.36;35.62;101836.09;1564380;89;21064;-51
2022/07/20 09:54:06;;;;;;;4.05;2.08;;;;;;;31.34;36.11;101834.89;1569082;89;21080;-50
2022/07/20 09:56:35;;;;;;;3.33;2.00;;;;;;;31.33;36.29;101834.52;1533820;91;21635;-50
2022/07/20 09:59:04;;;;;;;5.72;2.40;;;;;;;31.30;36.26;101826.75;1538771;91;21605;-52
2022/07/20 10:01:34;;;;;;;3.95;2.15;;;;;;;31.30;36.17;101825.41;1534210;91;21102;-48
2022/07/20 10:04:03;;;;;;;2.62;2.00;;;;;;;31.30;36.34;101817.34;1542180;91;21047;-51
2022/07/20 10:06:30;;;;;;;3.35;2.60;;;;;;;31.32;36.79;101818.05;1543253;91;21151;-50
2022/07/20 10:08:57;;;;;;;4.67;2.10;;;;;;;31.37;36.85;101818.45;1533679;91;21087;-52
2022/07/20 10:11:25;;;;;;;2.65;2.00;;;;;;;31.43;37.10;101820.61;1537280;91;21124;-50
2022/07/20 10:13:53;;;;;;;3.58;2.52;;;;;;;31.48;37.24;101814.31;1551012;91;21091;-52
2022/07/20 10:16:38;;;;;;;2.50;2.30;;;;;;;31.53;37.20;101820.63;1526637;93;21162;-50
2022/07/20 10:19:07;;;;;;;2.30;2.00;;;;;;;31.57;37.22;101813.48;1509469;92;21179;-52
2022/07/20 10:21:47;;;;;;;2.65;2.12;;;;;;;31.65;37.15;101812.75;1516389;93;21568;-51
2022/07/20 10:24:34;;;;;;;4.90;2.02;;;;;;;31.73;37.01;101813.73;1516431;91;21107;-51
2022/07/20 10:27:24;;;;;;;3.08;1.98;;;;;;;31.81;36.37;101811.16;1516302;93;21608;-51
2022/07/20 10:29:53;;;;;;;2.22;2.02;;;;;;;31.89;35.90;101804.55;1516553;93;21103;-52
2022/07/20 10:32:30;;;;;;;2.20;2.00;;;;;;;31.99;35.88;101815.31;1516525;93;21185;-49
2022/07/20 10:34:59;;;;;;;3.42;2.50;;;;;;;32.06;36.08;101809.23;1515563;93;21115;-53
2022/07/20 10:37:39;;;;;;;3.62;2.35;;;;;;;32.13;35.52;101806.77;1516781;93;21090;-49
2022/07/20 10:40:14;;;;;;;3.17;2.22;;;;;;;32.17;34.99;101793.88;1516201;93;21217;-52
2022/07/20 10:42:44;;;;;;;3.30;2.05;;;;;;;32.22;35.18;101798.30;1514412;95;21126;-50
2022/07/20 10:45:23;;;;;;;3.12;2.42;;;;;;;32.27;35.12;101800.07;1535893;89;21071;-51
2022/07/20 10:47:55;;;;;;;5.30;2.40;;;;;;;32.33;34.41;101794.09;1589254;89;21071;-56
2022/07/20 10:50:37;;;;;;;2.77;2.22;;;;;;;32.40;34.39;101785.25;1589016;90;21132;-51
2022/07/20 10:53:24;;;;;;;1.82;1.72;;;;;;;32.43;34.10;101776.89;1626964;85;21519;-51
2022/07/20 10:55:55;;;;;;;5.20;2.20;;;;;;;32.46;33.82;101775.78;1682056;84;21054;-53
2022/07/20 10:58:34;;;;;;;3.98;2.33;;;;;;;32.51;34.03;101769.42;1685216;85;21573;-53
2022/07/20 11:01:06;;;;;;;4.62;1.85;;;;;;;32.54;34.07;101761.05;1630054;87;21678;-51
2022/07/20 11:03:48;;;;;;;2.70;2.22;;;;;;;32.60;34.13;101765.84;1685026;85;21004;-51
2022/07/20 11:06:26;;;;;;;4.30;2.60;;;;;;;32.65;33.87;101756.78;1685357;84;21000;-52
2022/07/20 11:08:58;;;;;;;2.98;2.02;;;;;;;32.68;33.36;101760.05;1685103;84;21035;-51
2022/07/20 11:11:28;;;;;;;3.25;2.30;;;;;;;32.71;33.18;101749.43;1684994;84;21547;-52
2022/07/20 11:13:54;;;;;;;4.33;2.30;;;;;;;32.73;33.17;101748.28;1685339;84;21083;-51
2022/07/20 11:16:23;;;;;;;2.98;2.12;;;;;;;32.75;33.85;101738.69;1684835;84;21052;-49
2022/07/20 11:18:52;;;;;;;2.65;2.15;;;;;;;32.78;33.66;101735.70;1701014;84;21069;-49
2022/07/20 11:21:32;;;;;;;3.33;1.95;;;;;;;32.78;33.75;101733.87;1708522;84;21094;-51
2022/07/20 11:23:59;;;;;;;2.83;2.27;;;;;;;32.80;33.49;101737.26;1651787;86;21059;-51
2022/07/20 11:26:25;;;;;;;4.78;2.37;;;;;;;32.83;33.38;101730.69;1651513;87;21044;-53
2022/07/20 11:28:55;;;;;;;4.47;2.30;;;;;;;32.84;33.55;101727.00;1639763;86;21085;-54
2022/07/20 11:31:25;;;;;;;3.27;2.25;;;;;;;32.85;33.75;101717.93;1639877;86;21529;-51
2022/07/20 11:33:54;;;;;;;2.60;2.40;;;;;;;32.87;33.74;101718.63;1636924;86;21014;-50